Time;durP1;ratioP1;P1;durP2;ratioP2;P2;SDS_P1;SDS_P2;PMS_P1;PMS_P2;Temp;Humidity;BMP_temperature;BMP_pressure;BME280_temperature;BME280_humidity;BME280_pressure;Samples;Min_cycle;Max_cycle;Signal;HPM_P1;HPM_P2
2022/09/09 00:00:46;;;;;;;1.40;1.20;;;19.10;40.70;;;;;;5001569;28;20878;-73
2022/09/09 00:03:25;;;;;;;1.40;1.20;;;19.30;41.00;;;;;;4989452;28;20514;-73
2022/09/09 00:06:11;;;;;;;1.40;1.13;;;19.30;41.40;;;;;;5006523;28;20417;-73
2022/09/09 00:08:59;;;;;;;1.40;1.20;;;19.20;40.90;;;;;;5005770;28;20534;-73
2022/09/09 00:11:30;;;;;;;1.30;1.10;;;19.40;41.10;;;;;;4993056;28;20434;-73
2022/09/09 00:14:00;;;;;;;1.40;1.20;;;19.40;40.60;;;;;;4995663;28;20443;-74
2022/09/09 00:16:31;;;;;;;1.30;1.10;;;19.40;41.10;;;;;;5003826;28;20441;-73
2022/09/09 00:19:05;;;;;;;1.30;1.10;;;19.40;41.10;;;;;;4998457;28;20457;-74
2022/09/09 00:21:38;;;;;;;1.30;1.10;;;19.30;41.40;;;;;;4996519;28;20432;-74
2022/09/09 00:24:35;;;;;;;1.30;1.10;;;19.30;42.30;;;;;;5001281;28;20804;-74
2022/09/09 00:27:38;;;;;;;1.37;1.20;;;19.20;41.00;;;;;;4990036;28;20433;-74
2022/09/09 00:30:23;;;;;;;1.30;1.10;;;19.20;41.70;;;;;;4988304;28;20512;-73
2022/09/09 00:33:02;;;;;;;1.30;1.10;;;19.20;43.20;;;;;;4992114;28;20424;-73
2022/09/09 00:35:39;;;;;;;1.40;1.20;;;19.20;41.50;;;;;;4990737;28;20513;-73
2022/09/09 00:38:15;;;;;;;1.40;1.20;;;19.20;42.80;;;;;;4988229;28;20440;-73
2022/09/09 00:40:52;;;;;;;1.30;1.10;;;19.10;41.60;;;;;;4990553;28;20472;-73
2022/09/09 00:43:32;;;;;;;1.30;1.10;;;18.90;42.40;;;;;;4997286;28;20487;-74
2022/09/09 00:46:25;;;;;;;1.30;1.10;;;19.00;43.10;;;;;;4998243;28;20436;-74
2022/09/09 00:48:54;;;;;;;1.30;1.10;;;19.20;42.40;;;;;;4993719;28;20454;-73
2022/09/09 00:51:35;;;;;;;1.30;1.10;;;19.20;41.70;;;;;;5000057;28;20918;-73
2022/09/09 00:54:12;;;;;;;1.30;1.10;;;19.20;43.30;;;;;;4985573;28;20937;-74
2022/09/09 00:56:45;;;;;;;1.30;1.10;;;19.10;43.60;;;;;;4988995;28;20425;-74
2022/09/09 00:59:46;;;;;;;1.30;1.10;;;19.10;42.90;;;;;;4987241;28;20806;-71
2022/09/09 01:02:32;;;;;;;1.30;1.10;;;19.10;43.30;;;;;;4990820;28;20460;-71
2022/09/09 01:05:12;;;;;;;1.30;1.20;;;18.90;42.60;;;;;;4992656;28;21153;-71
2022/09/09 01:07:37;;;;;;;1.37;1.20;;;18.90;42.00;;;;;;4983331;28;20571;-71
2022/09/09 01:10:28;;;;;;;1.37;1.20;;;19.20;42.10;;;;;;5009751;28;20429;-71
2022/09/09 01:12:58;;;;;;;1.30;1.10;;;19.20;42.20;;;;;;4993253;28;20197;-71
2022/09/09 01:15:29;;;;;;;1.40;1.20;;;19.10;42.10;;;;;;4980799;28;20959;-71
2022/09/09 01:18:17;;;;;;;1.40;1.20;;;19.00;42.00;;;;;;4997422;28;20969;-71
2022/09/09 01:20:49;;;;;;;1.30;1.10;;;19.00;43.10;;;;;;4988021;28;20435;-72
2022/09/09 01:23:35;;;;;;;1.40;1.30;;;18.90;43.60;;;;;;4993651;28;21003;-71
2022/09/09 01:26:14;;;;;;;1.40;1.20;;;18.90;42.60;;;;;;4996262;28;20922;-71
2022/09/09 01:28:42;;;;;;;1.37;1.20;;;18.90;42.30;;;;;;4985055;28;20448;-71
2022/09/09 01:31:12;;;;;;;1.30;1.10;;;18.90;43.20;;;;;;4991842;28;20429;-71
2022/09/09 01:33:37;;;;;;;1.30;1.10;;;18.90;43.00;;;;;;4989702;28;20431;-71
2022/09/09 01:36:13;;;;;;;1.40;1.20;;;18.80;43.00;;;;;;4993559;28;20522;-71
2022/09/09 01:38:40;;;;;;;1.30;1.10;;;18.90;42.90;;;;;;4998272;28;20994;-72
2022/09/09 01:41:05;;;;;;;1.40;1.20;;;18.90;43.40;;;;;;4994509;28;20429;-71
2022/09/09 01:43:31;;;;;;;1.40;1.20;;;18.90;42.40;;;;;;5009281;28;20875;-71
2022/09/09 01:46:01;;;;;;;1.40;1.27;;;18.80;43.10;;;;;;4999424;28;20185;-71
2022/09/09 01:48:28;;;;;;;1.30;1.20;;;18.80;43.00;;;;;;4989403;28;20465;-70
2022/09/09 01:50:53;;;;;;;1.50;1.30;;;18.80;42.70;;;;;;4987748;28;20428;-71
2022/09/09 01:53:21;;;;;;;1.40;1.23;;;19.00;41.50;;;;;;5004462;28;20444;-71
2022/09/09 01:56:14;;;;;;;1.40;1.30;;;19.00;41.90;;;;;;4982659;28;20192;-71
2022/09/09 01:59:00;;;;;;;1.33;1.17;;;18.90;43.40;;;;;;4988449;28;20445;-70
2022/09/09 02:01:42;;;;;;;1.33;1.13;;;18.70;43.80;;;;;;5003361;28;20837;-70
2022/09/09 02:04:22;;;;;;;1.30;1.10;;;18.60;42.80;;;;;;4988692;28;20874;-71
2022/09/09 02:06:52;;;;;;;1.40;1.20;;;18.70;42.60;;;;;;4986964;28;20452;-71
2022/09/09 02:09:22;;;;;;;1.30;1.10;;;18.60;43.10;;;;;;4993580;28;20551;-71
2022/09/09 02:11:50;;;;;;;1.30;1.10;;;18.50;42.90;;;;;;4992225;28;20428;-71
2022/09/09 02:14:24;;;;;;;1.40;1.30;;;18.60;44.30;;;;;;5000044;28;20429;-70
2022/09/09 02:17:00;;;;;;;1.30;1.10;;;18.60;43.60;;;;;;4990902;28;20451;-71
2022/09/09 02:19:54;;;;;;;1.40;1.30;;;18.70;42.80;;;;;;4980979;28;21020;-70
2022/09/09 02:22:24;;;;;;;1.30;1.20;;;18.70;43.90;;;;;;5001640;28;20490;-71
2022/09/09 02:24:53;;;;;;;1.30;1.20;;;18.80;42.70;;;;;;4997152;28;20932;-71
2022/09/09 02:27:22;;;;;;;1.30;1.10;;;18.70;43.90;;;;;;4992060;28;20828;-70
2022/09/09 02:29:50;;;;;;;1.30;1.17;;;18.60;44.00;;;;;;4996917;28;20433;-71
2022/09/09 02:32:20;;;;;;;1.40;1.27;;;18.60;42.80;;;;;;4999532;28;20430;-70
2022/09/09 02:34:50;;;;;;;1.30;1.17;;;18.70;44.20;;;;;;4998691;28;20432;-71
2022/09/09 02:37:20;;;;;;;1.30;1.10;;;18.90;43.40;;;;;;4991202;28;20422;-70
2022/09/09 02:39:46;;;;;;;1.40;1.23;;;18.90;42.20;;;;;;4993377;28;20439;-70
2022/09/09 02:42:14;;;;;;;1.40;1.20;;;19.00;40.70;;;;;;5007860;28;20517;-70
2022/09/09 02:44:41;;;;;;;1.30;1.10;;;19.10;41.80;;;;;;4994720;28;20430;-70
2022/09/09 02:47:18;;;;;;;1.40;1.30;;;19.20;42.00;;;;;;5005448;28;20424;-71
2022/09/09 02:50:02;;;;;;;1.50;1.30;;;19.20;41.90;;;;;;4992717;28;20486;-70
2022/09/09 02:52:42;;;;;;;1.40;1.20;;;19.10;41.50;;;;;;4999729;28;20830;-71
2022/09/09 02:55:17;;;;;;;1.40;1.27;;;19.20;42.50;;;;;;4990934;28;20430;-71
2022/09/09 02:57:47;;;;;;;1.40;1.20;;;19.20;42.00;;;;;;4991259;28;20460;-71
2022/09/09 03:00:13;;;;;;;1.40;1.20;;;19.30;41.00;;;;;;4997511;28;20492;-71
2022/09/09 03:02:39;;;;;;;1.30;1.13;;;19.60;41.00;;;;;;4993644;28;20978;-71
2022/09/09 03:05:06;;;;;;;1.40;1.37;;;19.40;41.10;;;;;;5004443;28;20414;-71
2022/09/09 03:07:31;;;;;;;1.40;1.20;;;19.40;41.90;;;;;;5004432;28;20248;-71
2022/09/09 03:09:58;;;;;;;1.40;1.20;;;19.40;41.10;;;;;;5000669;28;20436;-71
2022/09/09 03:12:24;;;;;;;1.30;1.10;;;19.40;42.40;;;;;;4986354;28;20186;-71
2022/09/09 03:14:49;;;;;;;1.40;1.20;;;19.40;43.00;;;;;;4984825;28;20434;-71
2022/09/09 03:17:16;;;;;;;1.30;1.20;;;19.60;42.70;;;;;;4989687;28;20247;-71
2022/09/09 03:19:41;;;;;;;1.40;1.30;;;19.50;42.70;;;;;;4997101;28;20261;-71
2022/09/09 03:22:10;;;;;;;1.30;1.13;;;19.50;42.00;;;;;;4991300;28;20532;-71
2022/09/09 03:24:35;;;;;;;1.30;1.07;;;19.50;43.10;;;;;;4991465;28;20226;-71
2022/09/09 03:27:01;;;;;;;1.37;1.20;;;19.50;41.40;;;;;;4991788;28;20419;-71
2022/09/09 03:29:26;;;;;;;1.30;1.10;;;19.70;41.90;;;;;;4990252;28;20213;-71
2022/09/09 03:31:52;;;;;;;1.30;1.20;;;19.60;42.80;;;;;;4996866;28;20231;-71
2022/09/09 03:34:18;;;;;;;1.30;1.20;;;19.60;43.40;;;;;;4997272;28;20186;-71
2022/09/09 03:36:43;;;;;;;1.30;1.20;;;19.50;44.60;;;;;;4991440;28;20540;-71
2022/09/09 03:39:09;;;;;;;1.30;1.20;;;19.40;45.00;;;;;;4993778;28;20668;-71
2022/09/09 03:41:34;;;;;;;1.30;1.20;;;19.50;45.50;;;;;;4989537;28;20190;-71
2022/09/09 03:44:00;;;;;;;1.33;1.20;;;19.40;45.20;;;;;;4984897;28;20222;-71
2022/09/09 03:46:26;;;;;;;1.40;1.30;;;19.30;47.00;;;;;;5000182;28;20568;-71
2022/09/09 03:48:52;;;;;;;1.40;1.30;;;19.30;47.30;;;;;;5009865;28;20212;-71
2022/09/09 03:51:18;;;;;;;1.30;1.10;;;19.30;47.30;;;;;;4997092;28;20456;-71
2022/09/09 03:53:44;;;;;;;1.40;1.20;;;19.30;47.70;;;;;;4996687;28;20187;-71
2022/09/09 03:56:10;;;;;;;1.30;1.10;;;19.30;47.30;;;;;;4998757;28;20443;-71
2022/09/09 03:58:37;;;;;;;1.30;1.20;;;19.30;46.90;;;;;;4999725;28;20696;-70
2022/09/09 04:01:09;;;;;;;1.30;1.10;;;19.40;46.80;;;;;;4992310;28;20200;-71
2022/09/09 04:03:35;;;;;;;1.30;1.20;;;19.20;47.90;;;;;;4998759;28;20505;-71
2022/09/09 04:06:02;;;;;;;1.30;1.13;;;19.30;48.20;;;;;;4991943;28;20464;-71
2022/09/09 04:08:31;;;;;;;1.30;1.10;;;19.40;47.60;;;;;;4995919;28;20577;-71
2022/09/09 04:10:57;;;;;;;1.43;1.40;;;19.40;46.80;;;;;;4998215;28;20434;-71
2022/09/09 04:13:24;;;;;;;1.30;1.20;;;19.40;47.40;;;;;;5013594;28;20814;-72
2022/09/09 04:15:55;;;;;;;1.33;1.20;;;19.30;48.00;;;;;;5001498;28;20511;-72
2022/09/09 04:18:22;;;;;;;1.30;1.13;;;19.20;48.00;;;;;;4998041;28;20451;-72
2022/09/09 04:20:48;;;;;;;1.30;1.10;;;19.30;48.50;;;;;;5006347;28;20428;-73
2022/09/09 04:23:14;;;;;;;1.30;1.10;;;19.30;47.70;;;;;;5003783;28;20475;-73
2022/09/09 04:25:47;;;;;;;1.30;1.20;;;19.20;48.40;;;;;;4998326;28;20441;-72
2022/09/09 04:28:14;;;;;;;1.40;1.30;;;19.30;48.20;;;;;;5002989;28;20889;-72
2022/09/09 04:30:40;;;;;;;1.30;1.10;;;19.40;48.50;;;;;;4999923;28;20524;-72
2022/09/09 04:33:06;;;;;;;1.30;1.20;;;19.50;47.80;;;;;;5008732;28;20531;-74
2022/09/09 04:35:32;;;;;;;1.30;1.10;;;19.60;46.70;;;;;;4987546;28;20882;-73
2022/09/09 04:37:58;;;;;;;1.30;1.10;;;19.60;45.70;;;;;;4992957;28;20476;-72
2022/09/09 04:40:25;;;;;;;1.30;1.10;;;19.50;46.20;;;;;;5000975;28;20927;-73
2022/09/09 04:42:51;;;;;;;1.30;1.20;;;19.40;46.30;;;;;;4993432;28;20193;-73
2022/09/09 04:45:16;;;;;;;1.30;1.20;;;19.30;48.00;;;;;;5001696;28;20842;-73
2022/09/09 04:47:42;;;;;;;1.30;1.20;;;19.20;47.60;;;;;;5001241;28;20456;-72
2022/09/09 04:50:08;;;;;;;1.30;1.20;;;19.30;47.30;;;;;;4992806;28;20429;-72
2022/09/09 04:52:35;;;;;;;1.30;1.20;;;19.20;47.50;;;;;;5006378;28;20189;-72
2022/09/09 04:55:01;;;;;;;1.30;1.30;;;19.20;47.70;;;;;;4994533;28;20445;-72
2022/09/09 04:57:27;;;;;;;1.30;1.20;;;19.20;48.70;;;;;;4988511;28;20496;-72
2022/09/09 04:59:52;;;;;;;1.37;1.20;;;19.20;47.60;;;;;;4982867;28;20242;-72
2022/09/09 05:02:18;;;;;;;1.30;1.10;;;19.20;47.80;;;;;;4986480;28;20201;-72
2022/09/09 05:04:44;;;;;;;1.30;1.20;;;19.20;46.90;;;;;;4986153;28;20446;-72
2022/09/09 05:07:10;;;;;;;1.40;1.30;;;19.30;47.40;;;;;;4981939;28;20616;-72
2022/09/09 05:09:35;;;;;;;1.30;1.10;;;19.40;46.90;;;;;;4993865;28;20215;-72
2022/09/09 05:12:02;;;;;;;1.30;1.10;;;19.40;47.20;;;;;;4990527;28;20477;-72
2022/09/09 05:14:29;;;;;;;1.30;1.10;;;19.50;46.40;;;;;;4994456;28;20177;-73
2022/09/09 05:16:55;;;;;;;1.30;1.20;;;19.70;45.00;;;;;;5013365;28;20408;-73
2022/09/09 05:19:21;;;;;;;1.30;1.20;;;19.70;46.00;;;;;;5001226;28;20987;-73
2022/09/09 05:21:47;;;;;;;1.30;1.10;;;19.60;46.50;;;;;;4984366;28;20433;-73
2022/09/09 05:24:13;;;;;;;1.30;1.20;;;19.60;45.90;;;;;;4991135;28;20662;-73
2022/09/09 05:26:38;;;;;;;1.30;1.20;;;19.70;46.70;;;;;;4987781;28;20191;-73
2022/09/09 05:29:04;;;;;;;1.30;1.10;;;19.70;46.30;;;;;;4990650;28;20199;-72
2022/09/09 05:31:30;;;;;;;1.40;1.37;;;19.70;46.90;;;;;;4983911;28;20186;-73
2022/09/09 05:33:56;;;;;;;1.30;1.20;;;19.70;46.20;;;;;;4991406;28;20442;-73
2022/09/09 05:36:22;;;;;;;1.30;1.10;;;19.80;47.70;;;;;;4987541;28;20446;-73
2022/09/09 05:38:49;;;;;;;1.30;1.27;;;19.60;46.30;;;;;;4991519;28;20206;-72
2022/09/09 05:41:15;;;;;;;1.30;1.10;;;19.60;45.30;;;;;;4984097;28;20981;-72
2022/09/09 05:43:44;;;;;;;1.30;1.20;;;19.80;45.80;;;;;;4991113;28;20542;-72
2022/09/09 05:46:21;;;;;;;1.30;1.20;;;19.70;44.50;;;;;;4982943;28;20440;-73
2022/09/09 05:48:49;;;;;;;1.30;1.20;;;19.60;45.30;;;;;;5000805;28;20498;-72
2022/09/09 05:51:21;;;;;;;1.30;1.10;;;19.90;46.30;;;;;;5000309;28;20409;-72
2022/09/09 05:53:48;;;;;;;1.40;1.30;;;20.00;47.30;;;;;;5008938;28;20461;-73
2022/09/09 05:56:17;;;;;;;1.30;1.10;;;20.10;46.50;;;;;;4993007;28;20519;-72
2022/09/09 05:58:44;;;;;;;1.30;1.17;;;20.20;46.50;;;;;;4994790;28;20454;-72
2022/09/09 06:01:12;;;;;;;1.30;1.20;;;20.20;46.60;;;;;;5004745;28;20425;-73
2022/09/09 06:03:39;;;;;;;1.30;1.20;;;20.20;46.60;;;;;;4992663;28;20454;-72
2022/09/09 06:06:08;;;;;;;1.30;1.13;;;20.20;46.30;;;;;;4991341;28;20953;-72
2022/09/09 06:08:36;;;;;;;1.30;1.20;;;20.30;44.90;;;;;;4992813;28;20534;-72
2022/09/09 06:11:24;;;;;;;1.37;1.30;;;20.40;45.60;;;;;;4993216;28;20432;-73
2022/09/09 06:13:54;;;;;;;1.30;1.10;;;20.40;45.40;;;;;;4992537;28;20420;-72
2022/09/09 06:16:24;;;;;;;1.30;1.10;;;20.50;45.80;;;;;;4991144;28;20462;-72
2022/09/09 06:18:50;;;;;;;1.30;1.20;;;20.60;45.90;;;;;;4984240;28;20458;-73
2022/09/09 06:21:22;;;;;;;1.30;1.20;;;20.60;45.40;;;;;;4989413;28;20434;-72
2022/09/09 06:23:48;;;;;;;1.30;1.20;;;20.60;45.30;;;;;;4991910;28;20941;-72
2022/09/09 06:26:17;;;;;;;1.30;1.10;;;20.70;46.10;;;;;;4992370;28;20495;-73
2022/09/09 06:28:42;;;;;;;1.30;1.20;;;20.80;45.90;;;;;;4992121;28;20767;-74
2022/09/09 06:31:11;;;;;;;1.30;1.20;;;20.70;45.90;;;;;;4986131;28;20445;-73
2022/09/09 06:33:40;;;;;;;1.40;1.30;;;20.80;45.50;;;;;;4992001;28;20177;-73
2022/09/09 06:36:11;;;;;;;1.30;1.20;;;20.80;45.50;;;;;;4992531;28;20412;-73
2022/09/09 06:38:37;;;;;;;1.30;1.10;;;21.00;45.60;;;;;;4992339;28;20509;-73
2022/09/09 06:41:05;;;;;;;1.30;1.20;;;21.00;45.90;;;;;;4991904;28;20411;-73
2022/09/09 06:43:31;;;;;;;1.30;1.20;;;21.00;42.90;;;;;;4996366;28;20466;-73
2022/09/09 06:46:07;;;;;;;1.30;1.20;;;21.20;44.90;;;;;;5011921;28;20415;-73
2022/09/09 06:48:34;;;;;;;1.30;1.17;;;21.50;40.30;;;;;;5011527;28;20290;-74
2022/09/09 06:51:06;;;;;;;1.30;1.27;;;21.60;40.90;;;;;;5014667;28;20416;-73
2022/09/09 06:53:34;;;;;;;1.30;1.17;;;21.60;38.70;;;;;;5015232;28;20517;-73
2022/09/09 06:56:17;;;;;;;1.30;1.20;;;21.50;41.70;;;;;;5014897;28;20465;-73
2022/09/09 06:58:44;;;;;;;1.30;1.20;;;21.50;43.70;;;;;;5014873;28;20434;-73
2022/09/09 07:01:12;;;;;;;1.30;1.20;;;21.20;41.90;;;;;;5013760;28;20461;-73
2022/09/09 07:03:38;;;;;;;1.30;1.23;;;21.40;42.60;;;;;;5006238;28;20467;-74
2022/09/09 07:06:05;;;;;;;1.30;1.20;;;21.50;43.00;;;;;;4992917;28;20419;-73
2022/09/09 07:08:31;;;;;;;1.30;1.20;;;21.40;42.90;;;;;;4992138;28;20438;-73
2022/09/09 07:11:04;;;;;;;1.30;1.20;;;21.70;41.60;;;;;;4992772;28;20421;-73
2022/09/09 07:13:31;;;;;;;1.30;1.23;;;21.90;40.80;;;;;;4995621;28;20444;-74
2022/09/09 07:16:07;;;;;;;1.30;1.10;;;21.90;38.50;;;;;;5013251;28;20429;-73
2022/09/09 07:18:33;;;;;;;1.30;1.10;;;21.70;40.50;;;;;;4996206;28;20447;-73
2022/09/09 07:20:58;;;;;;;1.30;1.20;;;21.80;40.50;;;;;;4993070;28;20434;-74
2022/09/09 07:23:24;;;;;;;1.40;1.30;;;22.00;42.20;;;;;;4996064;28;20463;-73
2022/09/09 07:25:50;;;;;;;1.30;1.30;;;22.20;38.80;;;;;;4992650;28;20192;-73
2022/09/09 07:28:16;;;;;;;1.30;1.10;;;22.40;37.80;;;;;;4986089;28;20297;-72
2022/09/09 07:30:42;;;;;;;1.30;1.20;;;22.40;36.70;;;;;;4983394;28;20197;-73
2022/09/09 07:33:12;;;;;;;1.30;1.20;;;22.50;38.00;;;;;;4989441;28;20430;-73
2022/09/09 07:35:38;;;;;;;1.30;1.20;;;22.50;38.90;;;;;;4990779;28;20452;-73
2022/09/09 07:38:06;;;;;;;1.30;1.20;;;22.60;38.10;;;;;;4992925;28;21892;-73
2022/09/09 07:40:33;;;;;;;1.30;1.10;;;22.70;37.00;;;;;;4988288;28;20194;-73
2022/09/09 07:42:59;;;;;;;1.30;1.20;;;22.70;37.70;;;;;;4988199;28;20551;-73
2022/09/09 07:45:27;;;;;;;1.30;1.20;;;22.80;36.90;;;;;;4986223;28;20528;-73
2022/09/09 07:47:53;;;;;;;1.30;1.20;;;23.00;37.50;;;;;;4987519;28;20463;-73
2022/09/09 07:50:19;;;;;;;1.30;1.30;;;23.00;38.10;;;;;;4990042;28;20545;-73
2022/09/09 07:52:44;;;;;;;1.30;1.10;;;22.90;36.00;;;;;;4993513;28;20186;-74
2022/09/09 07:55:10;;;;;;;1.30;1.20;;;23.00;36.50;;;;;;4987122;28;20184;-74
2022/09/09 07:57:36;;;;;;;1.30;1.20;;;23.00;36.00;;;;;;4989110;28;20683;-74
2022/09/09 08:00:03;;;;;;;1.30;1.13;;;23.10;37.10;;;;;;4990122;28;20271;-74
2022/09/09 08:02:29;;;;;;;1.30;1.20;;;23.20;35.40;;;;;;4994224;28;20231;-74
2022/09/09 08:04:56;;;;;;;1.30;1.20;;;22.80;36.70;;;;;;4990432;28;20471;-73
2022/09/09 08:07:22;;;;;;;1.30;1.20;;;22.60;37.20;;;;;;4986990;28;20534;-74
2022/09/09 08:09:48;;;;;;;1.30;1.20;;;22.50;37.80;;;;;;4986114;28;20431;-74
2022/09/09 08:12:13;;;;;;;1.30;1.10;;;22.20;38.60;;;;;;4997448;28;20669;-74
2022/09/09 08:14:39;;;;;;;1.30;1.10;;;21.90;38.30;;;;;;4985061;28;20442;-74
2022/09/09 08:17:05;;;;;;;1.30;1.30;;;22.00;38.00;;;;;;4982328;28;20249;-74
2022/09/09 08:19:33;;;;;;;1.30;1.20;;;22.40;38.20;;;;;;4987286;28;20460;-74
2022/09/09 08:22:01;;;;;;;1.30;1.13;;;22.30;37.50;;;;;;4987959;28;20178;-73
2022/09/09 08:24:27;;;;;;;1.30;1.20;;;22.00;38.00;;;;;;4977217;28;21075;-73
2022/09/09 08:26:53;;;;;;;1.30;1.20;;;21.80;39.10;;;;;;4988947;28;20437;-74
2022/09/09 08:29:19;;;;;;;1.30;1.20;;;21.80;38.60;;;;;;4989723;28;20258;-75
2022/09/09 08:31:47;;;;;;;1.30;1.20;;;22.20;36.10;;;;;;4986701;28;20448;-74
2022/09/09 08:34:13;;;;;;;1.30;1.20;;;22.60;35.00;;;;;;4991396;28;20923;-73
2022/09/09 08:36:43;;;;;;;1.30;1.23;;;22.80;36.40;;;;;;4988543;28;20467;-73
2022/09/09 08:39:11;;;;;;;1.30;1.20;;;22.70;35.20;;;;;;4991043;28;20459;-74
2022/09/09 08:42:02;;;;;;;1.30;1.27;;;22.30;35.70;;;;;;4984896;28;20435;-74
2022/09/09 08:45:02;;;;;;;1.30;1.20;;;22.70;34.90;;;;;;4986390;28;20443;-74
2022/09/09 08:48:02;;;;;;;1.30;1.20;;;23.10;34.10;;;;;;4981951;28;20524;-73
2022/09/09 08:50:38;;;;;;;1.30;1.20;;;22.90;33.40;;;;;;4984939;28;20935;-74
2022/09/09 08:53:19;;;;;;;1.30;1.20;;;22.30;33.30;;;;;;4991356;28;20431;-74
2022/09/09 08:55:48;;;;;;;1.30;1.20;;;22.20;33.20;;;;;;4984802;28;20458;-75
2022/09/09 08:58:29;;;;;;;1.30;1.20;;;22.60;33.30;;;;;;4987755;28;20503;-73
2022/09/09 09:01:13;;;;;;;1.30;1.20;;;22.70;32.60;;;;;;4990158;28;20921;-74
2022/09/09 09:03:45;;;;;;;1.30;1.20;;;23.00;31.90;;;;;;4984998;28;20510;-74
2022/09/09 09:06:15;;;;;;;1.30;1.13;;;23.10;31.70;;;;;;4991910;28;20435;-75
2022/09/09 09:08:55;;;;;;;1.30;1.20;;;22.90;31.80;;;;;;4986063;28;20460;-79
2022/09/09 09:11:22;;;;;;;1.30;1.30;;;23.00;32.80;;;;;;4988504;28;20445;-75
2022/09/09 09:13:56;;;;;;;1.30;1.20;;;23.10;30.90;;;;;;4982738;28;20871;-75
2022/09/09 09:16:26;;;;;;;1.30;1.27;;;22.80;32.20;;;;;;4980929;28;20434;-75
2022/09/09 09:18:52;;;;;;;1.30;1.13;;;23.00;32.30;;;;;;4983912;28;20461;-74
2022/09/09 09:21:47;;;;;;;1.30;1.20;;;23.30;32.30;;;;;;4990189;28;20441;-75
2022/09/09 09:24:25;;;;;;;1.30;1.20;;;23.60;30.50;;;;;;4981321;28;20472;-76
2022/09/09 09:26:51;;;;;;;1.30;1.20;;;23.10;30.00;;;;;;4991701;28;20523;-75
2022/09/09 09:29:19;;;;;;;1.30;1.30;;;22.90;31.60;;;;;;4982702;28;21018;-74
2022/09/09 09:31:57;;;;;;;1.30;1.13;;;22.90;30.20;;;;;;4982588;28;20280;-75
2022/09/09 09:34:24;;;;;;;1.30;1.20;;;23.10;30.90;;;;;;4985147;28;20809;-74
2022/09/09 09:36:58;;;;;;;1.30;1.27;;;23.50;30.60;;;;;;4975226;28;20451;-71
2022/09/09 09:39:30;;;;;;;1.30;1.20;;;23.70;29.70;;;;;;4992674;28;20455;-72
2022/09/09 09:41:57;;;;;;;1.30;1.20;;;23.60;29.60;;;;;;4992534;28;20807;-73
2022/09/09 09:44:29;;;;;;;1.30;1.30;;;23.70;29.70;;;;;;4981653;28;20482;-72
2022/09/09 09:47:07;;;;;;;1.30;1.20;;;23.20;30.80;;;;;;4981204;28;20695;-73
2022/09/09 09:49:33;;;;;;;1.30;1.20;;;23.10;30.60;;;;;;4991333;28;20476;-73
2022/09/09 09:52:03;;;;;;;1.30;1.20;;;23.40;29.30;;;;;;4991617;28;20436;-73
2022/09/09 09:54:32;;;;;;;1.30;1.20;;;23.00;28.10;;;;;;4989834;28;20215;-72
2022/09/09 09:57:12;;;;;;;1.30;1.30;;;23.20;28.30;;;;;;4990254;28;20461;-73
2022/09/09 09:59:42;;;;;;;1.30;1.20;;;23.60;28.60;;;;;;4976063;28;20480;-73
2022/09/09 10:02:26;;;;;;;1.30;1.30;;;23.60;28.20;;;;;;4989762;28;20774;-74
2022/09/09 10:05:21;;;;;;;1.30;1.30;;;23.80;27.80;;;;;;4991181;28;20528;-74
2022/09/09 10:07:59;;;;;;;1.30;1.20;;;23.70;28.10;;;;;;4987529;28;20446;-74
2022/09/09 10:10:39;;;;;;;1.30;1.20;;;24.30;27.50;;;;;;4992583;28;20416;-74
2022/09/09 10:13:25;;;;;;;1.30;1.20;;;24.40;27.50;;;;;;4992406;28;20415;-73
2022/09/09 10:16:08;;;;;;;1.30;1.20;;;24.40;27.50;;;;;;5009547;28;20442;-74
2022/09/09 10:19:12;;;;;;;1.30;1.23;;;24.10;27.40;;;;;;5011739;28;20442;-73
2022/09/09 10:21:41;;;;;;;1.30;1.20;;;23.30;29.70;;;;;;5014822;28;20462;-73
2022/09/09 10:24:25;;;;;;;1.30;1.20;;;23.50;28.20;;;;;;5011454;28;20458;-73
2022/09/09 10:27:12;;;;;;;1.30;1.23;;;22.80;29.20;;;;;;4973125;28;20826;-72
2022/09/09 10:29:47;;;;;;;1.30;1.20;;;23.40;28.40;;;;;;4972706;28;20430;-72
2022/09/09 10:32:31;;;;;;;1.30;1.20;;;23.60;29.20;;;;;;4972508;28;20412;-73
2022/09/09 10:35:11;;;;;;;1.30;1.20;;;24.00;27.70;;;;;;4974509;28;20417;-72
2022/09/09 10:37:45;;;;;;;1.30;1.10;;;24.10;27.40;;;;;;5011855;28;20439;-72
2022/09/09 10:40:51;;;;;;;1.30;1.20;;;24.30;27.80;;;;;;5011499;28;20418;-72
2022/09/09 10:43:31;;;;;;;1.30;1.20;;;25.20;25.40;;;;;;5013558;28;21057;-72
2022/09/09 10:46:00;;;;;;;1.30;1.20;;;24.30;23.40;;;;;;5010066;28;20421;-72
2022/09/09 10:48:41;;;;;;;1.30;1.20;;;23.60;24.80;;;;;;5010936;28;20837;-72
2022/09/09 10:51:22;;;;;;;1.30;1.20;;;23.80;24.60;;;;;;5011356;28;20773;-73
2022/09/09 10:53:51;;;;;;;1.30;1.20;;;24.60;25.30;;;;;;5011372;28;20400;-73
2022/09/09 10:56:20;;;;;;;1.30;1.30;;;25.50;24.20;;;;;;5011001;28;20418;-73
2022/09/09 10:59:02;;;;;;;1.30;1.20;;;26.10;22.60;;;;;;4972691;28;20537;-73
2022/09/09 11:01:40;;;;;;;1.30;1.13;;;26.20;21.50;;;;;;4972116;28;20410;-73
2022/09/09 11:04:39;;;;;;;1.30;1.20;;;26.30;22.00;;;;;;4975704;28;20566;-73
2022/09/09 11:07:13;;;;;;;1.30;1.20;;;26.60;21.10;;;;;;4982544;28;20445;-73
2022/09/09 11:09:48;;;;;;;1.30;1.10;;;26.80;20.80;;;;;;4991971;28;20954;-73
2022/09/09 11:12:20;;;;;;;1.30;1.10;;;27.50;19.70;;;;;;4988098;28;20478;-72
2022/09/09 11:15:01;;;;;;;1.30;1.00;;;27.10;20.80;;;;;;4978526;28;20447;-73
2022/09/09 11:17:35;;;;;;;1.30;1.20;;;26.80;20.90;;;;;;4983885;28;20563;-73
2022/09/09 11:20:01;;;;;;;1.30;1.17;;;27.80;19.70;;;;;;4994088;28;20428;-73
2022/09/09 11:22:40;;;;;;;1.30;1.10;;;28.60;18.40;;;;;;4989577;28;20452;-73
2022/09/09 11:25:33;;;;;;;1.30;1.10;;;28.60;17.80;;;;;;4983837;28;20173;-74
2022/09/09 11:28:47;;;;;;;1.30;1.00;;;28.70;17.50;;;;;;4991836;28;20479;-73
2022/09/09 11:31:44;;;;;;;1.30;1.10;;;28.30;18.90;;;;;;4974682;28;20476;-72
2022/09/09 11:34:39;;;;;;;1.30;1.10;;;27.40;19.40;;;;;;4988659;28;20444;-71
2022/09/09 11:37:11;;;;;;;1.30;1.10;;;25.00;22.80;;;;;;4985284;28;20447;-72
2022/09/09 11:39:56;;;;;;;1.30;1.10;;;21.70;29.10;;;;;;4983100;28;20523;-73
2022/09/09 11:42:24;;;;;;;1.40;1.20;;;20.90;30.80;;;;;;4986865;28;20579;-72
2022/09/09 11:44:50;;;;;;;1.30;1.20;;;20.60;31.90;;;;;;4980492;28;20836;-72
2022/09/09 11:47:29;;;;;;;1.40;1.30;;;20.80;31.80;;;;;;4977644;28;20458;-72
2022/09/09 11:50:15;;;;;;;1.30;1.20;;;20.50;31.30;;;;;;4980558;28;20439;-72
2022/09/09 11:52:45;;;;;;;1.30;1.10;;;20.60;32.30;;;;;;4978633;28;20449;-72
2022/09/09 11:55:32;;;;;;;1.30;1.20;;;22.10;29.50;;;;;;4986720;28;20432;-73
2022/09/09 11:58:22;;;;;;;1.30;1.20;;;24.10;26.10;;;;;;4986863;28;20551;-74
2022/09/09 12:00:49;;;;;;;1.30;1.20;;;24.40;25.00;;;;;;4986954;28;20444;-74
2022/09/09 12:03:38;;;;;;;1.30;1.20;;;25.10;23.90;;;;;;4990566;28;20480;-74
2022/09/09 12:06:15;;;;;;;1.30;1.20;;;24.60;22.30;;;;;;4982607;28;20949;-74
2022/09/09 12:08:45;;;;;;;1.30;1.10;;;24.00;24.00;;;;;;4984272;28;20900;-73
2022/09/09 12:11:11;;;;;;;1.30;1.10;;;24.60;22.80;;;;;;4990398;28;20964;-73
2022/09/09 12:13:37;;;;;;;1.30;1.20;;;25.30;22.90;;;;;;4987207;28;20448;-73
2022/09/09 12:16:05;;;;;;;1.30;1.10;;;27.10;20.20;;;;;;4985489;28;20804;-73
2022/09/09 12:18:39;;;;;;;1.30;1.20;;;26.70;20.30;;;;;;4988335;28;20701;-73
2022/09/09 12:21:08;;;;;;;1.30;1.10;;;27.10;19.20;;;;;;4989188;28;20441;-73
2022/09/09 12:23:57;;;;;;;1.30;1.10;;;25.80;19.80;;;;;;4986121;28;20902;-73
2022/09/09 12:26:33;;;;;;;1.30;1.07;;;24.60;21.70;;;;;;4987753;28;20493;-72
2022/09/09 12:28:59;;;;;;;1.30;1.10;;;24.00;22.40;;;;;;4988247;28;20522;-74
2022/09/09 12:31:56;;;;;;;1.30;1.20;;;24.10;22.10;;;;;;4988244;28;20933;-72
2022/09/09 12:34:39;;;;;;;1.30;1.10;;;23.60;23.60;;;;;;4987945;28;20212;-73
2022/09/09 12:37:13;;;;;;;1.30;1.20;;;23.50;24.80;;;;;;4985326;28;20431;-73
2022/09/09 12:39:52;;;;;;;1.30;1.20;;;23.10;24.70;;;;;;4983191;28;21356;-74
2022/09/09 12:42:20;;;;;;;1.30;1.20;;;24.90;26.70;;;;;;4989415;28;20515;-75
2022/09/09 12:45:03;;;;;;;1.30;1.10;;;23.20;26.20;;;;;;4990698;28;20926;-74
2022/09/09 12:47:53;;;;;;;1.30;1.20;;;23.50;25.50;;;;;;4982103;28;20579;-73
2022/09/09 12:50:26;;;;;;;1.30;1.20;;;23.10;26.10;;;;;;4997786;28;20436;-73
2022/09/09 12:52:58;;;;;;;1.30;1.27;;;22.80;26.70;;;;;;4985057;28;20444;-73
2022/09/09 12:55:33;;;;;;;1.30;1.20;;;22.60;27.40;;;;;;4982341;28;20428;-73
2022/09/09 12:58:00;;;;;;;1.30;1.30;;;22.10;28.20;;;;;;4990177;28;20828;-73
2022/09/09 13:00:27;;;;;;;1.30;1.20;;;23.10;27.70;;;;;;4985504;28;20535;-72
2022/09/09 13:02:59;;;;;;;1.30;1.20;;;23.70;25.90;;;;;;4980350;28;20804;-74
2022/09/09 13:05:33;;;;;;;1.30;1.10;;;24.40;24.80;;;;;;4988525;28;20937;-73
2022/09/09 13:08:09;;;;;;;1.30;1.20;;;25.00;24.40;;;;;;4983486;28;20456;-74
2022/09/09 13:10:56;;;;;;;1.30;1.10;;;26.40;21.90;;;;;;4986392;28;20921;-74
2022/09/09 13:13:26;;;;;;;1.30;1.10;;;26.00;20.30;;;;;;4984782;28;20939;-74
2022/09/09 13:15:57;;;;;;;1.30;1.10;;;25.40;21.40;;;;;;4984993;28;20513;-75